Uaua, Brazil
Current Conditions -  °F | °C
As of 5:00 AM on Friday 31 Oct 2014 (Local Time) from SBPL Reporting Station
Few Clouds Few Clouds  
Wind Chill: 25°   Ceiling: Unl
Heat Index: 26°   Visibility: 6mi
Dew Point: 19°   Wind: 9mph
Humidity: 69%   Direction: 140°SE
Pressure: 29.97"   Gusts: NA
Location:  9.84°S, 39.48°W
Report Text: SBPL 310800Z 14008KT 9999 FEW020 25/19 Q1015
Loading
Personal Weather Stations






























Interactive Weather Map
Tropical Storm Tracking
New forecast layout! Learn more

10-Day Weather Forecast

Advertisements
Track Severe Weather on mobile